sensor_id;sensor_type;location;lat;lon;timestamp;P1;durP1;ratioP1;P2;durP2;ratioP2
70780;SDS011;59514;48.810;2.134;2022-07-23T00:01:57;24.90;;;22.63;;
70780;SDS011;59514;48.810;2.134;2022-07-23T00:04:23;27.17;;;24.75;;
70780;SDS011;59514;48.810;2.134;2022-07-23T00:06:48;26.65;;;24.25;;
70780;SDS011;59514;48.810;2.134;2022-07-23T00:09:13;25.70;;;23.23;;
70780;SDS011;59514;48.810;2.134;2022-07-23T00:11:39;27.13;;;24.58;;
70780;SDS011;59514;48.810;2.134;2022-07-23T00:14:04;25.38;;;23.10;;
70780;SDS011;59514;48.810;2.134;2022-07-23T00:16:29;25.25;;;23.08;;
70780;SDS011;59514;48.810;2.134;2022-07-23T00:18:55;26.77;;;24.38;;
70780;SDS011;59514;48.810;2.134;2022-07-23T00:21:20;25.17;;;22.98;;
70780;SDS011;59514;48.810;2.134;2022-07-23T00:23:45;26.02;;;23.52;;
70780;SDS011;59514;48.810;2.134;2022-07-23T00:26:11;25.35;;;23.15;;
70780;SDS011;59514;48.810;2.134;2022-07-23T00:28:36;25.42;;;22.98;;
70780;SDS011;59514;48.810;2.134;2022-07-23T00:31:02;24.60;;;22.50;;
70780;SDS011;59514;48.810;2.134;2022-07-23T00:33:27;24.85;;;22.55;;
70780;SDS011;59514;48.810;2.134;2022-07-23T00:35:52;27.17;;;24.67;;
70780;SDS011;59514;48.810;2.134;2022-07-23T00:38:18;26.20;;;23.67;;
70780;SDS011;59514;48.810;2.134;2022-07-23T00:40:43;25.83;;;23.42;;
70780;SDS011;59514;48.810;2.134;2022-07-23T00:43:09;25.20;;;22.90;;
70780;SDS011;59514;48.810;2.134;2022-07-23T00:45:34;25.05;;;22.63;;
70780;SDS011;59514;48.810;2.134;2022-07-23T00:48:00;24.05;;;21.75;;
70780;SDS011;59514;48.810;2.134;2022-07-23T00:50:26;24.15;;;21.95;;
70780;SDS011;59514;48.810;2.134;2022-07-23T00:52:51;25.17;;;22.75;;
70780;SDS011;59514;48.810;2.134;2022-07-23T00:55:17;23.83;;;21.60;;
70780;SDS011;59514;48.810;2.134;2022-07-23T00:57:43;24.13;;;21.98;;
70780;SDS011;59514;48.810;2.134;2022-07-23T01:00:09;26.35;;;23.67;;
70780;SDS011;59514;48.810;2.134;2022-07-23T01:02:36;26.05;;;23.52;;
70780;SDS011;59514;48.810;2.134;2022-07-23T01:05:02;25.85;;;23.35;;
70780;SDS011;59514;48.810;2.134;2022-07-23T01:07:28;26.70;;;24.30;;
70780;SDS011;59514;48.810;2.134;2022-07-23T01:09:54;27.77;;;25.23;;
70780;SDS011;59514;48.810;2.134;2022-07-23T01:12:19;28.63;;;25.77;;
70780;SDS011;59514;48.810;2.134;2022-07-23T01:14:48;28.17;;;25.27;;
70780;SDS011;59514;48.810;2.134;2022-07-23T01:17:21;29.50;;;26.65;;
70780;SDS011;59514;48.810;2.134;2022-07-23T01:19:47;27.80;;;25.17;;
70780;SDS011;59514;48.810;2.134;2022-07-23T01:22:12;29.80;;;26.95;;
70780;SDS011;59514;48.810;2.134;2022-07-23T01:24:39;30.10;;;27.20;;
70780;SDS011;59514;48.810;2.134;2022-07-23T01:27:05;30.25;;;27.25;;
70780;SDS011;59514;48.810;2.134;2022-07-23T01:29:30;30.10;;;27.10;;
70780;SDS011;59514;48.810;2.134;2022-07-23T01:31:56;30.83;;;27.63;;
70780;SDS011;59514;48.810;2.134;2022-07-23T01:34:21;33.33;;;29.90;;
70780;SDS011;59514;48.810;2.134;2022-07-23T01:36:46;32.78;;;29.48;;
70780;SDS011;59514;48.810;2.134;2022-07-23T01:39:12;31.42;;;28.25;;
70780;SDS011;59514;48.810;2.134;2022-07-23T01:41:37;31.50;;;28.25;;
70780;SDS011;59514;48.810;2.134;2022-07-23T01:44:02;33.15;;;29.85;;
70780;SDS011;59514;48.810;2.134;2022-07-23T01:46:28;31.80;;;28.52;;
70780;SDS011;59514;48.810;2.134;2022-07-23T01:48:53;34.20;;;30.77;;
70780;SDS011;59514;48.810;2.134;2022-07-23T01:51:18;33.83;;;30.40;;
70780;SDS011;59514;48.810;2.134;2022-07-23T01:53:44;33.35;;;30.02;;
70780;SDS011;59514;48.810;2.134;2022-07-23T01:56:09;35.10;;;31.48;;
70780;SDS011;59514;48.810;2.134;2022-07-23T01:58:34;35.05;;;31.45;;
70780;SDS011;59514;48.810;2.134;2022-07-23T02:01:00;36.53;;;32.75;;
70780;SDS011;59514;48.810;2.134;2022-07-23T02:03:25;34.60;;;31.00;;
70780;SDS011;59514;48.810;2.134;2022-07-23T02:05:51;33.47;;;30.23;;
70780;SDS011;59514;48.810;2.134;2022-07-23T02:08:17;34.67;;;31.08;;
70780;SDS011;59514;48.810;2.134;2022-07-23T02:10:42;34.33;;;31.00;;
70780;SDS011;59514;48.810;2.134;2022-07-23T02:13:08;36.05;;;32.33;;
70780;SDS011;59514;48.810;2.134;2022-07-23T02:15:34;35.35;;;31.80;;
70780;SDS011;59514;48.810;2.134;2022-07-23T02:18:00;35.28;;;31.58;;
70780;SDS011;59514;48.810;2.134;2022-07-23T02:20:25;36.83;;;32.83;;
70780;SDS011;59514;48.810;2.134;2022-07-23T02:22:51;37.75;;;33.92;;
70780;SDS011;59514;48.810;2.134;2022-07-23T02:25:16;36.55;;;32.85;;
70780;SDS011;59514;48.810;2.134;2022-07-23T02:27:42;37.38;;;33.53;;
70780;SDS011;59514;48.810;2.134;2022-07-23T02:30:07;35.22;;;31.58;;
70780;SDS011;59514;48.810;2.134;2022-07-23T02:32:33;35.88;;;32.08;;
70780;SDS011;59514;48.810;2.134;2022-07-23T02:34:59;35.92;;;32.22;;
70780;SDS011;59514;48.810;2.134;2022-07-23T02:37:24;35.25;;;31.52;;
70780;SDS011;59514;48.810;2.134;2022-07-23T02:39:49;36.20;;;32.13;;
70780;SDS011;59514;48.810;2.134;2022-07-23T02:42:15;34.13;;;30.70;;
70780;SDS011;59514;48.810;2.134;2022-07-23T02:44:41;34.83;;;31.05;;
70780;SDS011;59514;48.810;2.134;2022-07-23T02:47:06;35.72;;;31.60;;
70780;SDS011;59514;48.810;2.134;2022-07-23T02:49:31;35.92;;;32.00;;
70780;SDS011;59514;48.810;2.134;2022-07-23T02:51:57;34.38;;;30.90;;
70780;SDS011;59514;48.810;2.134;2022-07-23T02:54:22;35.05;;;31.52;;
70780;SDS011;59514;48.810;2.134;2022-07-23T02:56:47;35.80;;;31.92;;
70780;SDS011;59514;48.810;2.134;2022-07-23T02:59:13;34.83;;;31.17;;
70780;SDS011;59514;48.810;2.134;2022-07-23T03:01:38;35.17;;;31.58;;
70780;SDS011;59514;48.810;2.134;2022-07-23T03:04:04;35.25;;;31.15;;
70780;SDS011;59514;48.810;2.134;2022-07-23T03:06:29;43.22;;;35.10;;
70780;SDS011;59514;48.810;2.134;2022-07-23T03:08:54;39.53;;;34.85;;
70780;SDS011;59514;48.810;2.134;2022-07-23T03:11:20;37.63;;;33.63;;
70780;SDS011;59514;48.810;2.134;2022-07-23T03:13:45;39.20;;;33.67;;
70780;SDS011;59514;48.810;2.134;2022-07-23T03:16:10;36.80;;;32.78;;
70780;SDS011;59514;48.810;2.134;2022-07-23T03:18:36;34.25;;;30.52;;
70780;SDS011;59514;48.810;2.134;2022-07-23T03:21:02;36.67;;;29.55;;
70780;SDS011;59514;48.810;2.134;2022-07-23T03:23:28;33.17;;;29.67;;
70780;SDS011;59514;48.810;2.134;2022-07-23T03:25:53;32.13;;;28.92;;
70780;SDS011;59514;48.810;2.134;2022-07-23T03:28:18;31.50;;;28.27;;
70780;SDS011;59514;48.810;2.134;2022-07-23T03:30:44;30.15;;;27.05;;
70780;SDS011;59514;48.810;2.134;2022-07-23T03:33:15;30.67;;;27.42;;
70780;SDS011;59514;48.810;2.134;2022-07-23T03:35:42;29.23;;;26.23;;
70780;SDS011;59514;48.810;2.134;2022-07-23T03:38:08;30.80;;;27.70;;
70780;SDS011;59514;48.810;2.134;2022-07-23T03:40:34;32.38;;;29.13;;
70780;SDS011;59514;48.810;2.134;2022-07-23T03:42:59;31.90;;;28.25;;
70780;SDS011;59514;48.810;2.134;2022-07-23T03:45:25;32.58;;;29.17;;
70780;SDS011;59514;48.810;2.134;2022-07-23T03:47:50;30.40;;;27.35;;
70780;SDS011;59514;48.810;2.134;2022-07-23T03:50:15;29.77;;;26.67;;
70780;SDS011;59514;48.810;2.134;2022-07-23T03:52:41;32.25;;;28.83;;
70780;SDS011;59514;48.810;2.134;2022-07-23T03:55:06;32.22;;;28.83;;
70780;SDS011;59514;48.810;2.134;2022-07-23T03:57:32;32.95;;;29.48;;
70780;SDS011;59514;48.810;2.134;2022-07-23T03:59:57;32.60;;;29.20;;
70780;SDS011;59514;48.810;2.134;2022-07-23T04:02:23;31.75;;;28.05;;
70780;SDS011;59514;48.810;2.134;2022-07-23T04:04:48;32.05;;;28.25;;
70780;SDS011;59514;48.810;2.134;2022-07-23T04:07:14;34.97;;;29.88;;
70780;SDS011;59514;48.810;2.134;2022-07-23T04:09:39;32.17;;;29.02;;
70780;SDS011;59514;48.810;2.134;2022-07-23T04:12:05;31.92;;;28.15;;
70780;SDS011;59514;48.810;2.134;2022-07-23T04:14:31;31.80;;;28.35;;
70780;SDS011;59514;48.810;2.134;2022-07-23T04:16:57;33.55;;;29.95;;
70780;SDS011;59514;48.810;2.134;2022-07-23T04:19:23;32.13;;;28.77;;
70780;SDS011;59514;48.810;2.134;2022-07-23T04:21:49;31.30;;;28.10;;
70780;SDS011;59514;48.810;2.134;2022-07-23T04:24:14;31.63;;;28.25;;
70780;SDS011;59514;48.810;2.134;2022-07-23T04:26:40;32.03;;;28.63;;
70780;SDS011;59514;48.810;2.134;2022-07-23T04:29:05;31.50;;;27.85;;
70780;SDS011;59514;48.810;2.134;2022-07-23T04:31:30;28.63;;;25.30;;
70780;SDS011;59514;48.810;2.134;2022-07-23T04:33:56;27.88;;;25.05;;
70780;SDS011;59514;48.810;2.134;2022-07-23T04:36:21;31.23;;;26.27;;
70780;SDS011;59514;48.810;2.134;2022-07-23T04:38:46;29.85;;;25.15;;
70780;SDS011;59514;48.810;2.134;2022-07-23T04:41:11;28.10;;;25.20;;
70780;SDS011;59514;48.810;2.134;2022-07-23T04:43:37;27.60;;;24.65;;
70780;SDS011;59514;48.810;2.134;2022-07-23T04:46:02;26.10;;;23.38;;
70780;SDS011;59514;48.810;2.134;2022-07-23T04:48:27;26.55;;;23.63;;
70780;SDS011;59514;48.810;2.134;2022-07-23T04:50:53;28.00;;;25.10;;
70780;SDS011;59514;48.810;2.134;2022-07-23T04:53:18;28.48;;;24.73;;
70780;SDS011;59514;48.810;2.134;2022-07-23T04:55:44;28.27;;;25.50;;
70780;SDS011;59514;48.810;2.134;2022-07-23T04:58:10;27.95;;;24.95;;
70780;SDS011;59514;48.810;2.134;2022-07-23T05:00:35;28.85;;;25.83;;
70780;SDS011;59514;48.810;2.134;2022-07-23T05:03:01;27.27;;;24.42;;
70780;SDS011;59514;48.810;2.134;2022-07-23T05:05:26;29.17;;;24.83;;
70780;SDS011;59514;48.810;2.134;2022-07-23T05:07:51;29.98;;;26.83;;
70780;SDS011;59514;48.810;2.134;2022-07-23T05:10:17;30.83;;;25.83;;
70780;SDS011;59514;48.810;2.134;2022-07-23T05:12:42;29.02;;;25.10;;
70780;SDS011;59514;48.810;2.134;2022-07-23T05:15:08;31.13;;;26.95;;
70780;SDS011;59514;48.810;2.134;2022-07-23T05:17:33;29.15;;;26.05;;
70780;SDS011;59514;48.810;2.134;2022-07-23T05:19:58;29.20;;;25.85;;
70780;SDS011;59514;48.810;2.134;2022-07-23T05:22:24;31.35;;;26.52;;
70780;SDS011;59514;48.810;2.134;2022-07-23T05:24:49;30.65;;;26.02;;
70780;SDS011;59514;48.810;2.134;2022-07-23T05:27:14;29.65;;;26.55;;
70780;SDS011;59514;48.810;2.134;2022-07-23T05:29:40;30.20;;;26.35;;
70780;SDS011;59514;48.810;2.134;2022-07-23T05:32:05;33.15;;;27.85;;
70780;SDS011;59514;48.810;2.134;2022-07-23T05:34:30;31.08;;;27.17;;
70780;SDS011;59514;48.810;2.134;2022-07-23T05:36:56;35.25;;;28.10;;
70780;SDS011;59514;48.810;2.134;2022-07-23T05:39:21;30.98;;;26.73;;
70780;SDS011;59514;48.810;2.134;2022-07-23T05:41:46;36.00;;;28.63;;
70780;SDS011;59514;48.810;2.134;2022-07-23T05:44:12;35.22;;;28.70;;
70780;SDS011;59514;48.810;2.134;2022-07-23T05:46:37;38.08;;;28.88;;
70780;SDS011;59514;48.810;2.134;2022-07-23T05:49:02;37.72;;;30.33;;
70780;SDS011;59514;48.810;2.134;2022-07-23T05:51:28;37.75;;;30.10;;
70780;SDS011;59514;48.810;2.134;2022-07-23T05:53:53;43.75;;;31.35;;
70780;SDS011;59514;48.810;2.134;2022-07-23T05:56:19;47.83;;;33.90;;
70780;SDS011;59514;48.810;2.134;2022-07-23T05:58:44;47.40;;;33.70;;
70780;SDS011;59514;48.810;2.134;2022-07-23T06:01:10;58.25;;;36.25;;
70780;SDS011;59514;48.810;2.134;2022-07-23T06:03:36;50.63;;;36.53;;
70780;SDS011;59514;48.810;2.134;2022-07-23T06:06:02;48.97;;;36.38;;
70780;SDS011;59514;48.810;2.134;2022-07-23T06:08:28;50.58;;;36.47;;
70780;SDS011;59514;48.810;2.134;2022-07-23T06:10:53;58.17;;;34.78;;
70780;SDS011;59514;48.810;2.134;2022-07-23T06:13:18;51.85;;;36.28;;
70780;SDS011;59514;48.810;2.134;2022-07-23T06:15:44;47.97;;;33.10;;
70780;SDS011;59514;48.810;2.134;2022-07-23T06:18:09;52.35;;;33.03;;
70780;SDS011;59514;48.810;2.134;2022-07-23T06:20:34;42.88;;;31.65;;
70780;SDS011;59514;48.810;2.134;2022-07-23T06:23:00;48.45;;;31.33;;
70780;SDS011;59514;48.810;2.134;2022-07-23T06:25:25;42.50;;;29.10;;
70780;SDS011;59514;48.810;2.134;2022-07-23T06:27:51;45.97;;;30.90;;
70780;SDS011;59514;48.810;2.134;2022-07-23T06:30:16;42.95;;;30.05;;
70780;SDS011;59514;48.810;2.134;2022-07-23T06:32:42;42.47;;;27.60;;
70780;SDS011;59514;48.810;2.134;2022-07-23T06:35:08;45.60;;;28.63;;
70780;SDS011;59514;48.810;2.134;2022-07-23T06:37:34;40.80;;;29.08;;
70780;SDS011;59514;48.810;2.134;2022-07-23T06:39:59;48.35;;;30.83;;
70780;SDS011;59514;48.810;2.134;2022-07-23T06:42:24;47.53;;;31.27;;
70780;SDS011;59514;48.810;2.134;2022-07-23T06:44:50;47.38;;;30.05;;
70780;SDS011;59514;48.810;2.134;2022-07-23T06:47:15;45.55;;;30.67;;
70780;SDS011;59514;48.810;2.134;2022-07-23T06:49:40;45.97;;;30.83;;
70780;SDS011;59514;48.810;2.134;2022-07-23T06:52:06;51.30;;;31.08;;
70780;SDS011;59514;48.810;2.134;2022-07-23T06:54:32;56.05;;;33.30;;
70780;SDS011;59514;48.810;2.134;2022-07-23T06:56:57;57.72;;;33.40;;
70780;SDS011;59514;48.810;2.134;2022-07-23T06:59:22;53.08;;;34.00;;
70780;SDS011;59514;48.810;2.134;2022-07-23T07:01:48;51.95;;;33.10;;
70780;SDS011;59514;48.810;2.134;2022-07-23T07:04:13;47.10;;;30.73;;
70780;SDS011;59514;48.810;2.134;2022-07-23T07:06:38;48.47;;;31.85;;
70780;SDS011;59514;48.810;2.134;2022-07-23T07:09:04;50.00;;;31.95;;
70780;SDS011;59514;48.810;2.134;2022-07-23T07:11:29;45.47;;;31.08;;
70780;SDS011;59514;48.810;2.134;2022-07-23T07:13:54;46.58;;;33.08;;
70780;SDS011;59514;48.810;2.134;2022-07-23T07:16:20;39.78;;;29.23;;
70780;SDS011;59514;48.810;2.134;2022-07-23T07:18:45;45.35;;;29.02;;
70780;SDS011;59514;48.810;2.134;2022-07-23T07:21:11;46.50;;;28.55;;
70780;SDS011;59514;48.810;2.134;2022-07-23T07:23:36;47.38;;;28.90;;
70780;SDS011;59514;48.810;2.134;2022-07-23T07:26:02;38.67;;;26.95;;
70780;SDS011;59514;48.810;2.134;2022-07-23T07:28:27;39.20;;;28.88;;
70780;SDS011;59514;48.810;2.134;2022-07-23T07:30:53;39.63;;;28.25;;
70780;SDS011;59514;48.810;2.134;2022-07-23T07:33:18;41.72;;;27.95;;
70780;SDS011;59514;48.810;2.134;2022-07-23T07:35:44;42.25;;;26.95;;
70780;SDS011;59514;48.810;2.134;2022-07-23T07:38:09;38.58;;;27.67;;
70780;SDS011;59514;48.810;2.134;2022-07-23T07:40:34;43.25;;;28.85;;
70780;SDS011;59514;48.810;2.134;2022-07-23T07:43:00;40.83;;;27.60;;
70780;SDS011;59514;48.810;2.134;2022-07-23T07:45:26;37.03;;;26.55;;
70780;SDS011;59514;48.810;2.134;2022-07-23T07:47:52;35.85;;;26.98;;
70780;SDS011;59514;48.810;2.134;2022-07-23T07:50:18;40.65;;;28.30;;
70780;SDS011;59514;48.810;2.134;2022-07-23T07:52:44;37.88;;;27.75;;
70780;SDS011;59514;48.810;2.134;2022-07-23T07:55:10;38.65;;;27.83;;
70780;SDS011;59514;48.810;2.134;2022-07-23T07:57:36;42.22;;;27.95;;
70780;SDS011;59514;48.810;2.134;2022-07-23T08:00:02;38.53;;;26.42;;
70780;SDS011;59514;48.810;2.134;2022-07-23T08:02:46;39.05;;;28.90;;
70780;SDS011;59514;48.810;2.134;2022-07-23T08:05:13;38.63;;;28.48;;
70780;SDS011;59514;48.810;2.134;2022-07-23T08:07:39;33.08;;;25.85;;
70780;SDS011;59514;48.810;2.134;2022-07-23T08:10:08;36.22;;;26.92;;
70780;SDS011;59514;48.810;2.134;2022-07-23T08:12:38;35.05;;;26.52;;
70780;SDS011;59514;48.810;2.134;2022-07-23T08:15:10;34.35;;;26.35;;
70780;SDS011;59514;48.810;2.134;2022-07-23T08:17:36;36.78;;;26.90;;
70780;SDS011;59514;48.810;2.134;2022-07-23T08:20:02;41.92;;;27.30;;
70780;SDS011;59514;48.810;2.134;2022-07-23T08:22:42;34.67;;;26.58;;
70780;SDS011;59514;48.810;2.134;2022-07-23T08:25:07;36.03;;;26.73;;
70780;SDS011;59514;48.810;2.134;2022-07-23T08:27:33;36.58;;;26.75;;
70780;SDS011;59514;48.810;2.134;2022-07-23T08:29:58;41.20;;;27.73;;
70780;SDS011;59514;48.810;2.134;2022-07-23T08:32:24;38.63;;;27.80;;
70780;SDS011;59514;48.810;2.134;2022-07-23T08:34:49;35.13;;;27.27;;
70780;SDS011;59514;48.810;2.134;2022-07-23T08:37:14;34.92;;;26.63;;
70780;SDS011;59514;48.810;2.134;2022-07-23T08:39:39;33.55;;;26.65;;
70780;SDS011;59514;48.810;2.134;2022-07-23T08:42:05;35.63;;;26.25;;
70780;SDS011;59514;48.810;2.134;2022-07-23T08:44:32;30.60;;;25.63;;
70780;SDS011;59514;48.810;2.134;2022-07-23T08:47:00;34.05;;;26.55;;
70780;SDS011;59514;48.810;2.134;2022-07-23T08:49:25;33.17;;;26.05;;
70780;SDS011;59514;48.810;2.134;2022-07-23T08:51:51;33.50;;;26.10;;
70780;SDS011;59514;48.810;2.134;2022-07-23T08:54:17;29.77;;;25.90;;
70780;SDS011;59514;48.810;2.134;2022-07-23T08:56:43;33.08;;;26.80;;
70780;SDS011;59514;48.810;2.134;2022-07-23T08:59:08;30.13;;;25.63;;
70780;SDS011;59514;48.810;2.134;2022-07-23T09:01:33;29.60;;;26.30;;
70780;SDS011;59514;48.810;2.134;2022-07-23T09:03:59;30.05;;;26.02;;
70780;SDS011;59514;48.810;2.134;2022-07-23T09:06:26;30.98;;;25.70;;
70780;SDS011;59514;48.810;2.134;2022-07-23T09:08:51;27.08;;;23.88;;
70780;SDS011;59514;48.810;2.134;2022-07-23T09:11:17;29.90;;;25.67;;
70780;SDS011;59514;48.810;2.134;2022-07-23T09:13:46;28.98;;;25.75;;
70780;SDS011;59514;48.810;2.134;2022-07-23T09:16:16;33.67;;;27.77;;
70780;SDS011;59514;48.810;2.134;2022-07-23T09:21:15;32.30;;;27.92;;
70780;SDS011;59514;48.810;2.134;2022-07-23T09:23:48;35.97;;;27.63;;
70780;SDS011;59514;48.810;2.134;2022-07-23T09:29:00;32.83;;;27.73;;
70780;SDS011;59514;48.810;2.134;2022-07-23T09:31:33;33.60;;;26.80;;
70780;SDS011;59514;48.810;2.134;2022-07-23T09:34:15;32.55;;;27.65;;
70780;SDS011;59514;48.810;2.134;2022-07-23T09:36:43;32.22;;;26.15;;
70780;SDS011;59514;48.810;2.134;2022-07-23T09:39:09;34.08;;;27.30;;
70780;SDS011;59514;48.810;2.134;2022-07-23T09:41:37;30.35;;;26.17;;
70780;SDS011;59514;48.810;2.134;2022-07-23T09:44:08;30.17;;;25.50;;
70780;SDS011;59514;48.810;2.134;2022-07-23T09:46:35;30.33;;;26.50;;
70780;SDS011;59514;48.810;2.134;2022-07-23T09:49:00;30.85;;;26.23;;
70780;SDS011;59514;48.810;2.134;2022-07-23T09:51:45;34.55;;;27.73;;
70780;SDS011;59514;48.810;2.134;2022-07-23T09:54:20;30.52;;;26.15;;
70780;SDS011;59514;48.810;2.134;2022-07-23T09:56:49;27.52;;;24.50;;
70780;SDS011;59514;48.810;2.134;2022-07-23T09:59:16;28.70;;;24.33;;
70780;SDS011;59514;48.810;2.134;2022-07-23T10:01:43;28.02;;;25.08;;
70780;SDS011;59514;48.810;2.134;2022-07-23T10:04:09;30.50;;;25.42;;
70780;SDS011;59514;48.810;2.134;2022-07-23T10:06:37;33.08;;;27.98;;
70780;SDS011;59514;48.810;2.134;2022-07-23T10:09:04;34.00;;;27.73;;
70780;SDS011;59514;48.810;2.134;2022-07-23T10:11:30;31.10;;;27.23;;
70780;SDS011;59514;48.810;2.134;2022-07-23T10:13:58;35.42;;;28.27;;
70780;SDS011;59514;48.810;2.134;2022-07-23T10:16:25;31.77;;;27.10;;
70780;SDS011;59514;48.810;2.134;2022-07-23T10:18:52;29.63;;;24.85;;
70780;SDS011;59514;48.810;2.134;2022-07-23T10:21:19;29.83;;;26.27;;
70780;SDS011;59514;48.810;2.134;2022-07-23T10:27:25;31.63;;;27.48;;
70780;SDS011;59514;48.810;2.134;2022-07-23T10:29:51;30.50;;;26.67;;
70780;SDS011;59514;48.810;2.134;2022-07-23T10:35:33;31.65;;;27.08;;
70780;SDS011;59514;48.810;2.134;2022-07-23T10:38:30;29.47;;;26.40;;
70780;SDS011;59514;48.810;2.134;2022-07-23T10:40:56;31.52;;;26.48;;
70780;SDS011;59514;48.810;2.134;2022-07-23T10:43:24;32.90;;;27.35;;
70780;SDS011;59514;48.810;2.134;2022-07-23T10:45:49;32.70;;;26.90;;
70780;SDS011;59514;48.810;2.134;2022-07-23T10:48:22;30.02;;;26.95;;
70780;SDS011;59514;48.810;2.134;2022-07-23T10:56:17;33.38;;;25.08;;
70780;SDS011;59514;48.810;2.134;2022-07-23T10:59:03;28.67;;;25.42;;
70780;SDS011;59514;48.810;2.134;2022-07-23T11:01:36;27.98;;;24.95;;
70780;SDS011;59514;48.810;2.134;2022-07-23T11:04:02;28.75;;;25.30;;
70780;SDS011;59514;48.810;2.134;2022-07-23T11:17:25;26.40;;;23.40;;
70780;SDS011;59514;48.810;2.134;2022-07-23T11:22:35;25.65;;;21.27;;
70780;SDS011;59514;48.810;2.134;2022-07-23T11:25:00;24.30;;;21.67;;
70780;SDS011;59514;48.810;2.134;2022-07-23T11:27:43;23.95;;;20.80;;
70780;SDS011;59514;48.810;2.134;2022-07-23T11:32:54;21.67;;;19.10;;
70780;SDS011;59514;48.810;2.134;2022-07-23T11:35:39;23.85;;;19.88;;
70780;SDS011;59514;48.810;2.134;2022-07-23T11:38:07;21.90;;;19.60;;
70780;SDS011;59514;48.810;2.134;2022-07-23T11:40:43;22.83;;;20.40;;
70780;SDS011;59514;48.810;2.134;2022-07-23T11:43:10;22.50;;;20.15;;
70780;SDS011;59514;48.810;2.134;2022-07-23T11:45:41;23.42;;;19.95;;
70780;SDS011;59514;48.810;2.134;2022-07-23T11:48:17;22.38;;;20.15;;
70780;SDS011;59514;48.810;2.134;2022-07-23T11:50:47;22.38;;;20.17;;
70780;SDS011;59514;48.810;2.134;2022-07-23T11:53:13;21.58;;;19.27;;
70780;SDS011;59514;48.810;2.134;2022-07-23T11:55:47;20.95;;;18.85;;
70780;SDS011;59514;48.810;2.134;2022-07-23T11:58:12;20.85;;;18.60;;
70780;SDS011;59514;48.810;2.134;2022-07-23T12:00:39;21.33;;;19.02;;
70780;SDS011;59514;48.810;2.134;2022-07-23T12:03:06;23.48;;;19.10;;
70780;SDS011;59514;48.810;2.134;2022-07-23T12:05:33;21.75;;;19.48;;
70780;SDS011;59514;48.810;2.134;2022-07-23T12:08:01;20.73;;;18.42;;
70780;SDS011;59514;48.810;2.134;2022-07-23T12:10:30;19.58;;;17.65;;
70780;SDS011;59514;48.810;2.134;2022-07-23T12:13:13;20.63;;;18.27;;
70780;SDS011;59514;48.810;2.134;2022-07-23T12:18:12;21.10;;;18.92;;
70780;SDS011;59514;48.810;2.134;2022-07-23T12:20:40;21.95;;;19.70;;
70780;SDS011;59514;48.810;2.134;2022-07-23T12:23:11;20.40;;;18.30;;
70780;SDS011;59514;48.810;2.134;2022-07-23T12:25:39;21.48;;;18.02;;
70780;SDS011;59514;48.810;2.134;2022-07-23T12:28:11;22.63;;;20.25;;
70780;SDS011;59514;48.810;2.134;2022-07-23T12:33:20;20.23;;;18.20;;
70780;SDS011;59514;48.810;2.134;2022-07-23T12:35:47;20.00;;;17.67;;
70780;SDS011;59514;48.810;2.134;2022-07-23T12:38:15;18.33;;;16.42;;
70780;SDS011;59514;48.810;2.134;2022-07-23T12:40:46;16.80;;;15.10;;
70780;SDS011;59514;48.810;2.134;2022-07-23T12:46:08;16.63;;;14.95;;
70780;SDS011;59514;48.810;2.134;2022-07-23T12:48:37;15.05;;;13.73;;
70780;SDS011;59514;48.810;2.134;2022-07-23T12:51:05;15.35;;;13.80;;
70780;SDS011;59514;48.810;2.134;2022-07-23T12:53:42;15.98;;;13.82;;
70780;SDS011;59514;48.810;2.134;2022-07-23T12:56:09;15.23;;;13.73;;
70780;SDS011;59514;48.810;2.134;2022-07-23T13:01:08;15.18;;;13.75;;
70780;SDS011;59514;48.810;2.134;2022-07-23T13:03:36;14.05;;;12.60;;
70780;SDS011;59514;48.810;2.134;2022-07-23T13:06:05;15.27;;;13.65;;
70780;SDS011;59514;48.810;2.134;2022-07-23T13:08:32;14.30;;;12.90;;
70780;SDS011;59514;48.810;2.134;2022-07-23T13:10:58;13.48;;;12.02;;
70780;SDS011;59514;48.810;2.134;2022-07-23T13:13:25;12.88;;;11.57;;
70780;SDS011;59514;48.810;2.134;2022-07-23T13:15:53;12.00;;;10.98;;
70780;SDS011;59514;48.810;2.134;2022-07-23T13:18:19;13.35;;;11.95;;
70780;SDS011;59514;48.810;2.134;2022-07-23T13:20:45;12.10;;;10.98;;
70780;SDS011;59514;48.810;2.134;2022-07-23T13:23:12;13.27;;;11.90;;
70780;SDS011;59514;48.810;2.134;2022-07-23T13:25:38;12.40;;;11.20;;
70780;SDS011;59514;48.810;2.134;2022-07-23T13:28:03;12.40;;;10.65;;
70780;SDS011;59514;48.810;2.134;2022-07-23T13:30:29;12.52;;;11.40;;
70780;SDS011;59514;48.810;2.134;2022-07-23T13:32:54;11.18;;;10.00;;
70780;SDS011;59514;48.810;2.134;2022-07-23T13:35:20;11.63;;;10.60;;
70780;SDS011;59514;48.810;2.134;2022-07-23T13:37:45;11.93;;;10.82;;
70780;SDS011;59514;48.810;2.134;2022-07-23T13:40:11;11.45;;;10.45;;
70780;SDS011;59514;48.810;2.134;2022-07-23T13:42:36;11.50;;;10.45;;
70780;SDS011;59514;48.810;2.134;2022-07-23T13:45:03;11.05;;;10.05;;
70780;SDS011;59514;48.810;2.134;2022-07-23T13:47:30;10.98;;;9.77;;
70780;SDS011;59514;48.810;2.134;2022-07-23T13:49:55;11.43;;;10.25;;
70780;SDS011;59514;48.810;2.134;2022-07-23T13:52:20;10.43;;;9.40;;
70780;SDS011;59514;48.810;2.134;2022-07-23T13:54:46;9.85;;;8.90;;
70780;SDS011;59514;48.810;2.134;2022-07-23T13:57:12;10.43;;;9.32;;
70780;SDS011;59514;48.810;2.134;2022-07-23T13:59:37;10.05;;;9.05;;
70780;SDS011;59514;48.810;2.134;2022-07-23T14:02:03;10.60;;;9.60;;
70780;SDS011;59514;48.810;2.134;2022-07-23T14:04:29;9.48;;;8.63;;
70780;SDS011;59514;48.810;2.134;2022-07-23T14:06:54;10.02;;;9.07;;
70780;SDS011;59514;48.810;2.134;2022-07-23T14:09:19;9.77;;;8.85;;
70780;SDS011;59514;48.810;2.134;2022-07-23T14:11:45;10.25;;;9.25;;
70780;SDS011;59514;48.810;2.134;2022-07-23T14:14:10;8.77;;;8.00;;
70780;SDS011;59514;48.810;2.134;2022-07-23T14:16:35;9.35;;;8.45;;
70780;SDS011;59514;48.810;2.134;2022-07-23T14:19:01;9.18;;;8.38;;
70780;SDS011;59514;48.810;2.134;2022-07-23T14:21:27;8.82;;;7.93;;
70780;SDS011;59514;48.810;2.134;2022-07-23T14:23:52;9.07;;;8.23;;
70780;SDS011;59514;48.810;2.134;2022-07-23T14:26:18;8.50;;;7.60;;
70780;SDS011;59514;48.810;2.134;2022-07-23T14:28:44;9.45;;;8.55;;
70780;SDS011;59514;48.810;2.134;2022-07-23T14:31:09;8.98;;;8.02;;
70780;SDS011;59514;48.810;2.134;2022-07-23T14:33:35;9.05;;;8.23;;
70780;SDS011;59514;48.810;2.134;2022-07-23T14:36:00;8.32;;;7.53;;
70780;SDS011;59514;48.810;2.134;2022-07-23T14:38:26;8.95;;;8.05;;
70780;SDS011;59514;48.810;2.134;2022-07-23T14:40:52;8.45;;;7.68;;
70780;SDS011;59514;48.810;2.134;2022-07-23T14:43:17;8.85;;;8.05;;
70780;SDS011;59514;48.810;2.134;2022-07-23T14:45:42;8.38;;;7.57;;
70780;SDS011;59514;48.810;2.134;2022-07-23T14:48:08;8.07;;;7.27;;
70780;SDS011;59514;48.810;2.134;2022-07-23T14:50:33;10.82;;;7.72;;
70780;SDS011;59514;48.810;2.134;2022-07-23T14:52:58;8.77;;;7.90;;
70780;SDS011;59514;48.810;2.134;2022-07-23T14:55:24;8.35;;;7.55;;
70780;SDS011;59514;48.810;2.134;2022-07-23T14:57:49;8.18;;;7.47;;
70780;SDS011;59514;48.810;2.134;2022-07-23T15:00:15;8.50;;;7.63;;
70780;SDS011;59514;48.810;2.134;2022-07-23T15:02:41;7.18;;;6.65;;
70780;SDS011;59514;48.810;2.134;2022-07-23T15:05:06;8.05;;;7.25;;